createdAt,value
2022-11-30T00:01:36.235Z,6.20
2022-11-30T00:04:04.209Z,6.20
2022-11-30T00:06:32.076Z,6.20
2022-11-30T00:09:01.718Z,6.10
2022-11-30T00:11:30.007Z,6.10
2022-11-30T00:13:57.924Z,6.10
2022-11-30T00:16:27.287Z,6.00
2022-11-30T00:18:59.153Z,6.00
2022-11-30T00:21:27.097Z,6.00
2022-11-30T00:23:55.070Z,6.00
2022-11-30T00:26:23.709Z,6.00
2022-11-30T00:28:51.686Z,6.00
2022-11-30T00:31:21.040Z,6.00
2022-11-30T00:33:49.474Z,6.00
2022-11-30T00:36:21.077Z,6.00
2022-11-30T00:38:49.773Z,6.00
2022-11-30T00:41:18.004Z,6.00
2022-11-30T00:43:46.542Z,6.00
2022-11-30T00:46:14.594Z,6.00
2022-11-30T00:48:43.063Z,6.10
2022-11-30T00:51:12.408Z,6.10
2022-11-30T00:53:42.223Z,6.10
2022-11-30T00:56:10.633Z,6.20
2022-11-30T00:58:38.669Z,6.30
2022-11-30T01:01:07.010Z,6.30
2022-11-30T01:03:36.180Z,6.30
2022-11-30T01:06:04.867Z,6.20
2022-11-30T01:08:33.356Z,6.10
2022-11-30T01:11:09.642Z,6.10
2022-11-30T01:13:37.621Z,6.00
2022-11-30T01:16:10.514Z,6.00
2022-11-30T01:18:38.863Z,6.10
2022-11-30T01:21:08.441Z,6.10
2022-11-30T01:23:38.441Z,6.10
2022-11-30T01:26:07.993Z,6.10
2022-11-30T01:28:36.002Z,6.20
2022-11-30T01:31:06.198Z,6.20
2022-11-30T01:33:34.707Z,6.20
2022-11-30T01:36:03.744Z,6.20
2022-11-30T01:38:35.885Z,6.10
2022-11-30T01:41:05.703Z,6.10
2022-11-30T01:43:43.426Z,6.20
2022-11-30T01:46:28.405Z,6.20
2022-11-30T01:49:01.664Z,6.20
2022-11-30T01:51:34.725Z,6.20
2022-11-30T01:54:06.701Z,6.20
2022-11-30T01:56:35.114Z,6.20
2022-11-30T01:59:05.592Z,6.20
2022-11-30T02:01:33.668Z,6.20
2022-11-30T02:04:07.455Z,6.10
2022-11-30T02:06:35.858Z,6.10
2022-11-30T02:09:04.259Z,6.10
2022-11-30T02:11:32.219Z,6.10
2022-11-30T02:14:12.212Z,6.10
2022-11-30T02:16:49.747Z,6.10
2022-11-30T02:19:49.753Z,6.10
2022-11-30T02:22:30.253Z,6.10
2022-11-30T02:25:10.020Z,6.10
2022-11-30T02:27:54.819Z,6.10
2022-11-30T02:30:25.124Z,6.20
2022-11-30T02:32:57.457Z,6.20
2022-11-30T02:35:29.546Z,6.20
2022-11-30T02:38:00.244Z,6.20
2022-11-30T02:40:28.633Z,6.30
2022-11-30T02:42:59.188Z,6.30
2022-11-30T02:45:39.391Z,6.20
2022-11-30T02:48:11.035Z,6.20
2022-11-30T02:50:43.846Z,6.20
2022-11-30T02:53:11.872Z,6.20
2022-11-30T02:55:39.773Z,6.20
2022-11-30T02:58:07.835Z,6.20
2022-11-30T03:00:37.106Z,6.20
2022-11-30T03:03:06.039Z,6.20
2022-11-30T03:05:34.453Z,6.20
2022-11-30T03:08:02.413Z,6.30
2022-11-30T03:10:30.403Z,6.20
2022-11-30T03:12:59.194Z,6.20
2022-11-30T03:15:27.488Z,6.20
2022-11-30T03:17:56.762Z,6.20
2022-11-30T03:20:24.616Z,6.20
2022-11-30T03:22:52.473Z,6.20
2022-11-30T03:25:20.389Z,6.20
2022-11-30T03:27:48.304Z,6.20
2022-11-30T03:30:18.253Z,6.20
2022-11-30T03:32:46.092Z,6.20
2022-11-30T03:35:15.457Z,6.20
2022-11-30T03:37:43.495Z,6.20
2022-11-30T03:40:12.490Z,6.20
2022-11-30T03:42:48.208Z,6.20
2022-11-30T03:45:16.243Z,6.20
2022-11-30T03:47:44.813Z,6.20
2022-11-30T03:50:13.018Z,6.20
2022-11-30T03:52:42.298Z,6.20
2022-11-30T03:55:10.556Z,6.20
2022-11-30T03:57:39.247Z,6.20
2022-11-30T04:00:09.272Z,6.20
2022-11-30T04:02:43.072Z,6.20
2022-11-30T04:05:12.571Z,6.20
2022-11-30T04:07:42.023Z,6.20
2022-11-30T04:10:11.769Z,6.20
2022-11-30T04:12:39.717Z,6.20
2022-11-30T04:15:08.837Z,6.20
2022-11-30T04:17:36.824Z,6.20
2022-11-30T04:20:05.491Z,6.30
2022-11-30T04:22:33.842Z,6.30
2022-11-30T04:25:03.112Z,6.30
2022-11-30T04:27:31.070Z,6.20
2022-11-30T04:29:58.980Z,6.20
2022-11-30T04:32:26.955Z,6.20
2022-11-30T04:34:54.821Z,6.20
2022-11-30T04:37:22.692Z,6.10
2022-11-30T04:39:50.695Z,6.20
2022-11-30T04:42:19.938Z,6.20
2022-11-30T04:44:48.047Z,6.20
2022-11-30T04:47:19.015Z,6.20
2022-11-30T04:49:47.140Z,6.20
2022-11-30T04:52:15.058Z,6.20
2022-11-30T04:54:43.032Z,6.20
2022-11-30T04:57:11.129Z,6.20
2022-11-30T04:59:40.517Z,6.20
2022-11-30T05:02:08.865Z,6.20
2022-11-30T05:04:37.080Z,6.20
2022-11-30T05:07:05.163Z,6.20
2022-11-30T05:09:33.158Z,6.30
2022-11-30T05:12:01.080Z,6.20
2022-11-30T05:14:29.067Z,6.20
2022-11-30T05:16:58.287Z,6.20
2022-11-30T05:19:26.248Z,6.30
2022-11-30T05:21:54.185Z,6.20
2022-11-30T05:24:22.074Z,6.20
2022-11-30T05:26:50.097Z,6.20
2022-11-30T05:29:20.065Z,6.10
2022-11-30T05:31:48.157Z,6.10
2022-11-30T05:34:17.718Z,6.10
2022-11-30T05:36:45.787Z,6.20
2022-11-30T05:39:13.729Z,6.20
2022-11-30T05:41:41.670Z,6.20
2022-11-30T05:44:13.723Z,6.20
2022-11-30T05:46:41.885Z,6.30
2022-11-30T05:49:10.085Z,6.30
2022-11-30T05:51:41.528Z,6.20
2022-11-30T05:54:09.621Z,6.30
2022-11-30T05:56:37.676Z,6.20
2022-11-30T05:59:05.623Z,6.20
2022-11-30T06:01:33.634Z,6.10
2022-11-30T06:04:05.945Z,6.10
2022-11-30T06:06:36.851Z,6.00
2022-11-30T06:09:06.157Z,6.00
2022-11-30T06:11:34.205Z,6.00
2022-11-30T06:14:02.155Z,6.00
2022-11-30T06:16:30.420Z,6.00
2022-11-30T06:18:59.368Z,6.00
2022-11-30T06:21:27.345Z,6.10
2022-11-30T06:23:55.289Z,6.10
2022-11-30T06:26:27.633Z,6.10
2022-11-30T06:28:55.625Z,6.10
2022-11-30T06:31:23.753Z,6.20
2022-11-30T06:33:51.792Z,6.20
2022-11-30T06:36:23.046Z,6.20
2022-11-30T06:38:51.495Z,6.20
2022-11-30T06:41:19.747Z,6.20
2022-11-30T06:43:49.058Z,6.10
2022-11-30T06:46:17.461Z,6.20
2022-11-30T06:48:48.685Z,6.20
2022-11-30T06:51:16.683Z,6.10
2022-11-30T06:53:46.018Z,6.10
2022-11-30T06:56:13.989Z,6.20
2022-11-30T06:58:42.758Z,6.20
2022-11-30T07:01:14.647Z,6.20
2022-11-30T07:03:43.496Z,6.20
2022-11-30T07:06:13.230Z,6.20
2022-11-30T07:08:42.056Z,6.20
2022-11-30T07:11:11.398Z,6.20
2022-11-30T07:13:39.940Z,6.20
2022-11-30T07:16:09.501Z,6.20
2022-11-30T07:18:38.944Z,6.30
2022-11-30T07:21:08.112Z,6.30
2022-11-30T07:23:56.556Z,6.30
2022-11-30T07:26:25.951Z,6.30
2022-11-30T07:28:58.114Z,6.30
2022-11-30T07:31:28.338Z,6.30
2022-11-30T07:34:00.667Z,6.30
2022-11-30T07:36:30.384Z,6.40
2022-11-30T07:38:58.664Z,6.40
2022-11-30T07:41:26.938Z,6.40
2022-11-30T07:43:55.301Z,6.40
2022-11-30T07:46:23.449Z,6.40
2022-11-30T07:48:51.537Z,6.40
2022-11-30T07:51:22.798Z,6.40
2022-11-30T07:53:54.231Z,6.50
2022-11-30T07:56:22.810Z,6.50
2022-11-30T07:58:53.903Z,6.50
2022-11-30T08:01:23.728Z,6.60
2022-11-30T08:03:52.912Z,6.60
2022-11-30T08:06:24.372Z,6.60
2022-11-30T08:08:54.621Z,6.70
2022-11-30T08:11:25.135Z,6.70
2022-11-30T08:13:53.102Z,6.80
2022-11-30T08:16:23.495Z,6.80
2022-11-30T08:18:52.169Z,6.80
2022-11-30T08:21:24.479Z,6.80
2022-11-30T08:23:54.342Z,6.80
2022-11-30T08:26:24.482Z,6.80
2022-11-30T08:28:54.807Z,6.80
2022-11-30T08:31:25.394Z,6.80
2022-11-30T08:33:59.853Z,6.80
2022-11-30T08:36:30.859Z,6.90
2022-11-30T08:39:00.297Z,6.90
2022-11-30T08:41:28.336Z,6.90
2022-11-30T08:43:56.394Z,7.00
2022-11-30T08:46:50.171Z,7.00
2022-11-30T08:49:22.586Z,7.00
2022-11-30T08:52:16.366Z,7.10
2022-11-30T08:54:45.328Z,7.10
2022-11-30T08:57:13.822Z,7.10
2022-11-30T08:59:41.883Z,7.20
2022-11-30T09:02:10.693Z,7.20
2022-11-30T09:04:38.957Z,7.20
2022-11-30T09:07:09.549Z,7.20
2022-11-30T09:09:38.044Z,7.30
2022-11-30T09:12:06.393Z,7.30
2022-11-30T09:14:34.345Z,7.30
2022-11-30T09:17:02.622Z,7.40
2022-11-30T09:19:31.557Z,7.40
2022-11-30T09:21:59.442Z,7.50
2022-11-30T09:24:28.797Z,7.50
2022-11-30T09:26:57.787Z,7.60
2022-11-30T09:29:25.675Z,7.60
2022-11-30T09:31:53.562Z,7.60
2022-11-30T09:34:21.638Z,7.70
2022-11-30T09:36:49.626Z,7.70
2022-11-30T09:39:17.646Z,7.70
2022-11-30T09:42:13.503Z,7.70
2022-11-30T09:44:52.934Z,7.70
2022-11-30T09:47:43.550Z,7.60
2022-11-30T09:50:14.848Z,7.70
2022-11-30T09:52:46.039Z,7.70
2022-11-30T09:55:18.709Z,7.70
2022-11-30T09:57:52.482Z,7.70
2022-11-30T10:00:23.019Z,7.60
2022-11-30T10:02:53.214Z,7.60
2022-11-30T10:05:24.029Z,7.60
2022-11-30T10:08:18.359Z,7.60
2022-11-30T10:10:52.871Z,7.70
2022-11-30T10:13:35.350Z,7.60
2022-11-30T10:16:16.858Z,7.70
2022-11-30T10:18:56.323Z,7.70
2022-11-30T10:21:41.348Z,7.60
2022-11-30T10:24:21.986Z,7.60
2022-11-30T10:26:55.781Z,7.60
2022-11-30T10:29:31.906Z,7.60
2022-11-30T10:32:02.916Z,7.70
2022-11-30T10:34:35.626Z,7.70
2022-11-30T10:37:12.522Z,7.70
2022-11-30T10:39:47.433Z,7.70
2022-11-30T10:42:20.899Z,7.70
2022-11-30T10:45:00.222Z,7.70
2022-11-30T10:47:33.816Z,7.70
2022-11-30T10:50:01.959Z,7.70
2022-11-30T10:52:35.851Z,7.60
2022-11-30T10:55:05.156Z,7.60
2022-11-30T10:57:34.744Z,7.60
2022-11-30T11:00:07.446Z,7.50
2022-11-30T11:02:43.151Z,7.60
2022-11-30T11:05:18.003Z,7.60
2022-11-30T11:07:51.707Z,7.60
2022-11-30T11:10:22.557Z,7.60
2022-11-30T11:12:52.806Z,7.60
2022-11-30T11:15:25.274Z,7.60
2022-11-30T11:17:55.308Z,7.70
2022-11-30T11:20:33.514Z,7.70
2022-11-30T11:23:02.989Z,7.80
2022-11-30T11:25:34.970Z,7.80
2022-11-30T11:28:08.903Z,7.90
2022-11-30T11:30:38.829Z,8.00
2022-11-30T11:33:20.897Z,7.90
2022-11-30T11:35:50.911Z,8.00
2022-11-30T11:38:27.276Z,8.00
2022-11-30T11:40:57.563Z,8.10
2022-11-30T11:43:27.825Z,8.10
2022-11-30T11:46:01.001Z,8.20
2022-11-30T11:48:36.525Z,8.20
2022-11-30T11:51:08.098Z,8.20
2022-11-30T11:53:51.533Z,8.20
2022-11-30T11:56:26.145Z,8.20
2022-11-30T11:58:59.938Z,8.10
2022-11-30T12:01:45.014Z,7.90
2022-11-30T12:04:51.446Z,7.90
2022-11-30T12:07:26.632Z,7.90
2022-11-30T12:13:18.520Z,8.00
2022-11-30T12:16:00.919Z,8.10
2022-11-30T12:18:37.609Z,8.10
2022-11-30T12:21:14.737Z,8.20
2022-11-30T12:24:20.346Z,8.30
2022-11-30T12:26:57.064Z,8.20
2022-11-30T12:29:29.884Z,8.30
2022-11-30T12:32:16.784Z,8.40
2022-11-30T12:35:01.479Z,8.40
2022-11-30T12:37:40.696Z,8.40
2022-11-30T12:40:23.255Z,8.20
2022-11-30T12:42:58.068Z,8.10
2022-11-30T12:45:34.994Z,8.20
2022-11-30T12:48:08.847Z,8.20
2022-11-30T12:50:51.955Z,8.10
2022-11-30T12:53:25.043Z,8.00
2022-11-30T12:56:09.747Z,8.00
2022-11-30T12:58:42.692Z,8.00
2022-11-30T13:01:25.858Z,8.00
2022-11-30T13:04:03.282Z,8.00
2022-11-30T13:06:38.025Z,8.00
2022-11-30T13:09:13.298Z,7.90
2022-11-30T13:11:48.069Z,7.80
2022-11-30T13:14:22.484Z,7.70
2022-11-30T13:16:59.570Z,7.70
2022-11-30T13:19:47.837Z,7.80
2022-11-30T13:22:24.770Z,7.70
2022-11-30T13:25:01.625Z,7.70
2022-11-30T13:27:36.830Z,7.70
2022-11-30T13:30:20.752Z,7.70
2022-11-30T13:32:57.901Z,7.70
2022-11-30T13:35:42.673Z,7.70
2022-11-30T13:38:38.685Z,7.70
2022-11-30T13:41:08.852Z,7.80
2022-11-30T13:43:40.939Z,7.80
2022-11-30T13:46:16.627Z,7.70
2022-11-30T13:48:48.907Z,7.80
2022-11-30T13:51:38.258Z,7.80
2022-11-30T13:54:50.313Z,7.80
2022-11-30T13:57:55.991Z,7.90
2022-11-30T14:00:49.415Z,7.90
2022-11-30T14:03:24.525Z,7.90
2022-11-30T14:05:53.290Z,7.90
2022-11-30T14:08:39.346Z,7.90
2022-11-30T14:11:39.773Z,7.90
2022-11-30T14:14:45.356Z,7.90
2022-11-30T14:17:19.929Z,7.90
2022-11-30T14:19:51.824Z,7.90
2022-11-30T14:22:20.120Z,7.80
2022-11-30T14:24:50.080Z,7.80
2022-11-30T14:27:22.026Z,7.80
2022-11-30T14:29:53.468Z,7.80
2022-11-30T14:32:31.245Z,7.80
2022-11-30T14:35:07.832Z,7.80
2022-11-30T14:37:42.635Z,7.70
2022-11-30T14:40:19.049Z,7.60
2022-11-30T14:42:52.729Z,7.50
2022-11-30T14:45:22.897Z,7.50
2022-11-30T14:47:55.455Z,7.50
2022-11-30T14:50:26.352Z,7.40
2022-11-30T14:53:07.165Z,7.40
2022-11-30T14:55:39.434Z,7.40
2022-11-30T14:58:19.153Z,7.50
2022-11-30T15:00:48.122Z,7.60
2022-11-30T15:03:25.398Z,7.50
2022-11-30T15:05:56.574Z,7.50
2022-11-30T15:08:26.706Z,7.50
2022-11-30T15:10:56.535Z,7.50
2022-11-30T15:13:24.599Z,7.40
2022-11-30T15:15:54.558Z,7.40
2022-11-30T15:18:25.603Z,7.40
2022-11-30T15:20:57.612Z,7.40
2022-11-30T15:23:25.651Z,7.40
2022-11-30T15:25:57.416Z,7.30
2022-11-30T15:28:29.495Z,7.30
2022-11-30T15:31:01.240Z,7.30
2022-11-30T15:33:35.344Z,7.30
2022-11-30T15:36:23.126Z,7.40
2022-11-30T15:38:53.565Z,7.40
2022-11-30T15:41:23.348Z,7.40
2022-11-30T15:43:53.358Z,7.30
2022-11-30T15:46:33.124Z,7.30
2022-11-30T15:49:18.513Z,7.40
2022-11-30T15:51:53.222Z,7.30
2022-11-30T15:54:43.817Z,7.30
2022-11-30T15:57:15.836Z,7.30
2022-11-30T15:59:45.149Z,7.30
2022-11-30T16:02:32.208Z,7.40
2022-11-30T16:05:27.694Z,7.30
2022-11-30T16:08:00.056Z,7.30
2022-11-30T16:10:34.406Z,7.30
2022-11-30T16:13:02.781Z,7.20
2022-11-30T16:15:32.316Z,7.20
2022-11-30T16:18:17.440Z,7.20
2022-11-30T16:20:49.600Z,7.30
2022-11-30T16:23:18.112Z,7.40
2022-11-30T16:25:48.023Z,7.40
2022-11-30T16:28:18.281Z,7.40
2022-11-30T16:30:47.040Z,7.30
2022-11-30T16:33:16.393Z,7.30
2022-11-30T16:35:53.819Z,7.30
2022-11-30T16:38:22.155Z,7.30
2022-11-30T16:40:50.149Z,7.30
2022-11-30T16:43:18.590Z,7.30
2022-11-30T16:45:46.953Z,7.20
2022-11-30T16:48:15.171Z,7.20
2022-11-30T16:50:43.120Z,7.20
2022-11-30T16:53:18.045Z,7.20
2022-11-30T16:55:46.050Z,7.20
2022-11-30T16:58:13.968Z,7.10
2022-11-30T17:00:42.224Z,7.20
2022-11-30T17:03:21.278Z,7.20
2022-11-30T17:05:49.165Z,7.20
2022-11-30T17:08:18.630Z,7.20
2022-11-30T17:10:46.725Z,7.20
2022-11-30T17:13:15.986Z,7.20
2022-11-30T17:15:44.111Z,7.10
2022-11-30T17:18:12.055Z,7.10
2022-11-30T17:20:40.527Z,7.10
2022-11-30T17:23:08.639Z,7.10
2022-11-30T17:25:37.874Z,7.00
2022-11-30T17:28:06.051Z,7.10
2022-11-30T17:30:34.260Z,7.00
2022-11-30T17:33:02.625Z,7.10
2022-11-30T17:35:30.555Z,7.10
2022-11-30T17:37:58.476Z,7.00
2022-11-30T17:40:26.465Z,7.00
2022-11-30T17:42:55.658Z,7.00
2022-11-30T17:45:23.555Z,7.00
2022-11-30T17:47:51.455Z,6.90
2022-11-30T17:50:19.480Z,7.00
2022-11-30T17:52:47.409Z,6.90
2022-11-30T17:55:15.518Z,7.00
2022-11-30T17:57:43.446Z,7.00
2022-11-30T18:00:14.093Z,6.90
2022-11-30T18:02:42.152Z,6.90
2022-11-30T18:05:10.714Z,6.90
2022-11-30T18:07:38.731Z,7.00
2022-11-30T18:10:07.973Z,6.90
2022-11-30T18:12:36.356Z,6.90
2022-11-30T18:15:04.547Z,6.90
2022-11-30T18:17:34.000Z,6.80
2022-11-30T18:20:02.082Z,6.80
2022-11-30T18:22:30.072Z,6.80
2022-11-30T18:24:57.946Z,6.90
2022-11-30T18:27:26.755Z,6.80
2022-11-30T18:29:54.878Z,6.80
2022-11-30T18:32:22.843Z,6.90
2022-11-30T18:34:52.223Z,6.80
2022-11-30T18:37:20.622Z,6.80
2022-11-30T18:39:48.722Z,6.80
2022-11-30T18:42:18.174Z,6.80
2022-11-30T18:44:46.372Z,6.80
2022-11-30T18:47:14.588Z,6.80
2022-11-30T18:49:42.472Z,6.80
2022-11-30T18:52:11.778Z,6.80
2022-11-30T18:54:39.848Z,6.80
2022-11-30T18:57:07.738Z,6.70
2022-11-30T18:59:35.614Z,6.80
2022-11-30T19:02:05.729Z,6.70
2022-11-30T19:04:33.912Z,6.80
2022-11-30T19:07:01.813Z,6.70
2022-11-30T19:09:31.097Z,6.70
2022-11-30T19:12:00.171Z,6.70
2022-11-30T19:14:28.179Z,6.70
2022-11-30T19:16:56.136Z,6.60
2022-11-30T19:19:24.288Z,6.60
2022-11-30T19:21:52.630Z,6.60
2022-11-30T19:24:20.615Z,6.60
2022-11-30T19:26:49.952Z,6.50
2022-11-30T19:29:17.805Z,6.60
2022-11-30T19:31:45.710Z,6.60
2022-11-30T19:34:13.995Z,6.70
2022-11-30T19:36:44.702Z,6.70
2022-11-30T19:39:12.796Z,6.60
2022-11-30T19:41:46.841Z,6.60
2022-11-30T19:44:20.879Z,6.60
2022-11-30T19:46:49.032Z,6.50
2022-11-30T19:49:20.464Z,6.40
2022-11-30T19:51:48.670Z,6.50
2022-11-30T19:54:16.641Z,6.50
2022-11-30T19:56:44.709Z,6.40
2022-11-30T19:59:12.704Z,6.40
2022-11-30T20:01:54.154Z,6.40
2022-11-30T20:04:23.908Z,6.40
2022-11-30T20:06:52.031Z,6.40
2022-11-30T20:09:20.029Z,6.50
2022-11-30T20:11:48.076Z,6.50
2022-11-30T20:14:17.874Z,6.60
2022-11-30T20:16:47.321Z,6.60
2022-11-30T20:19:16.600Z,6.50
2022-11-30T20:21:44.681Z,6.50
2022-11-30T20:24:13.032Z,6.50
2022-11-30T20:26:43.519Z,6.50
2022-11-30T20:29:14.785Z,6.50
2022-11-30T20:31:44.287Z,6.60
2022-11-30T20:34:13.727Z,6.50
2022-11-30T20:36:41.907Z,6.50
2022-11-30T20:39:11.326Z,6.50
2022-11-30T20:41:39.958Z,6.50
2022-11-30T20:44:07.901Z,6.50
2022-11-30T20:46:36.992Z,6.60
2022-11-30T20:49:12.015Z,6.50
2022-11-30T20:51:46.134Z,6.60
2022-11-30T20:54:14.489Z,6.40
2022-11-30T20:56:42.775Z,6.40
2022-11-30T20:59:15.159Z,6.40
2022-11-30T21:01:44.740Z,6.50
2022-11-30T21:04:13.087Z,6.50
2022-11-30T21:06:45.764Z,6.50
2022-11-30T21:09:14.704Z,6.50
2022-11-30T21:11:45.961Z,6.50
2022-11-30T21:14:14.880Z,6.50
2022-11-30T21:16:43.008Z,6.50
2022-11-30T21:19:12.243Z,6.40
2022-11-30T21:21:40.284Z,6.40
2022-11-30T21:24:10.423Z,6.50
2022-11-30T21:26:40.764Z,6.40
2022-11-30T21:29:11.787Z,6.40
2022-11-30T21:31:40.176Z,6.30
2022-11-30T21:34:08.627Z,6.30
2022-11-30T21:36:36.608Z,6.40
2022-11-30T21:39:07.409Z,6.40
2022-11-30T21:41:39.043Z,6.40
2022-11-30T21:44:09.909Z,6.40
2022-11-30T21:46:38.522Z,6.30
2022-11-30T21:49:07.315Z,6.30
2022-11-30T21:51:38.944Z,6.40
2022-11-30T21:54:11.187Z,6.30
2022-11-30T21:56:47.549Z,6.40
2022-11-30T21:59:16.459Z,6.40
2022-11-30T22:01:45.941Z,6.30
2022-11-30T22:04:15.601Z,6.40
2022-11-30T22:06:44.299Z,6.30
2022-11-30T22:09:15.798Z,6.30
2022-11-30T22:11:46.552Z,6.30
2022-11-30T22:14:16.948Z,6.30
2022-11-30T22:16:45.581Z,6.30
2022-11-30T22:19:13.488Z,6.20
2022-11-30T22:21:45.360Z,6.20
2022-11-30T22:24:16.492Z,6.20
2022-11-30T22:26:46.656Z,6.20
2022-11-30T22:29:16.565Z,6.20
2022-11-30T22:31:46.275Z,6.30
2022-11-30T22:34:14.818Z,6.30
2022-11-30T22:36:43.940Z,6.30
2022-11-30T22:39:13.717Z,6.30
2022-11-30T22:41:43.193Z,6.30
2022-11-30T22:44:13.848Z,6.30
2022-11-30T22:46:42.444Z,6.30
2022-11-30T22:49:22.892Z,6.30
2022-11-30T22:51:51.597Z,6.30
2022-11-30T22:54:19.798Z,6.30
2022-11-30T22:56:47.686Z,6.30
2022-11-30T22:59:17.406Z,6.30
2022-11-30T23:01:47.243Z,6.30
2022-11-30T23:04:17.179Z,6.40
2022-11-30T23:06:45.860Z,6.40
2022-11-30T23:09:16.059Z,6.30
2022-11-30T23:11:44.357Z,6.30
2022-11-30T23:14:12.361Z,6.40
2022-11-30T23:16:41.802Z,6.30
2022-11-30T23:19:11.614Z,6.30
2022-11-30T23:21:42.391Z,6.40
2022-11-30T23:24:13.785Z,6.40
2022-11-30T23:26:43.125Z,6.40
2022-11-30T23:29:13.497Z,6.30
2022-11-30T23:31:44.212Z,6.30
2022-11-30T23:34:14.940Z,6.20
2022-11-30T23:36:42.915Z,6.20
2022-11-30T23:39:12.464Z,6.10
2022-11-30T23:41:40.967Z,6.00
2022-11-30T23:44:09.369Z,6.10
2022-11-30T23:46:37.683Z,6.00
2022-11-30T23:49:08.018Z,5.90
2022-11-30T23:51:36.325Z,6.00
2022-11-30T23:54:05.123Z,5.90
2022-11-30T23:56:33.045Z,5.80
2022-11-30T23:59:02.132Z,5.80
